createdAt,value
2023-04-17T00:02:45.092Z,17.13
2023-04-17T00:05:34.174Z,16.52
2023-04-17T00:08:23.047Z,18.13
2023-04-17T00:11:11.849Z,17.15
2023-04-17T00:14:00.596Z,17.73
2023-04-17T00:16:49.632Z,18.23
2023-04-17T00:19:39.718Z,18.17
2023-04-17T00:22:28.447Z,16.92
2023-04-17T00:25:17.263Z,17.33
2023-04-17T00:28:06.620Z,17.33
2023-04-17T00:30:55.663Z,16.85
2023-04-17T00:33:46.270Z,18.13
2023-04-17T00:36:36.412Z,17.33
2023-04-17T00:39:25.118Z,17.17
2023-04-17T00:42:13.822Z,17.08
2023-04-17T00:45:02.590Z,17.67
2023-04-17T00:47:52.971Z,17.10
2023-04-17T00:50:43.050Z,17.05
2023-04-17T00:53:34.265Z,17.55
2023-04-17T00:56:23.753Z,17.27
2023-04-17T00:59:13.987Z,17.17
2023-04-17T01:02:03.560Z,18.38
2023-04-17T01:04:52.567Z,17.73
2023-04-17T01:07:42.484Z,17.00
2023-04-17T01:10:33.201Z,17.30
2023-04-17T01:13:21.941Z,16.13
2023-04-17T01:16:10.913Z,18.10
2023-04-17T01:19:00.353Z,17.10
2023-04-17T01:21:49.269Z,17.33
2023-04-17T01:24:39.807Z,17.52
2023-04-17T01:27:28.750Z,18.63
2023-04-17T01:30:17.975Z,18.08
2023-04-17T01:33:28.219Z,18.35
2023-04-17T01:36:17.562Z,17.58
2023-04-17T01:39:08.098Z,17.67
2023-04-17T01:41:58.306Z,18.55
2023-04-17T01:44:47.065Z,17.45
2023-04-17T01:47:36.071Z,18.83
2023-04-17T01:50:24.906Z,20.80
2023-04-17T01:53:13.908Z,26.65
2023-04-17T01:56:03.191Z,27.65
2023-04-17T01:58:53.377Z,25.52
2023-04-17T02:01:42.157Z,18.75
2023-04-17T02:04:31.202Z,17.60
2023-04-17T02:07:19.923Z,17.15
2023-04-17T02:10:10.234Z,16.92
2023-04-17T02:12:58.931Z,16.98
2023-04-17T02:15:49.753Z,17.90
2023-04-17T02:18:38.577Z,18.90
2023-04-17T02:21:28.440Z,17.60
2023-04-17T02:24:18.765Z,17.75
2023-04-17T02:27:10.031Z,17.42
2023-04-17T02:29:58.714Z,17.85
2023-04-17T02:32:49.014Z,19.08
2023-04-17T02:35:37.705Z,17.88
2023-04-17T02:38:30.500Z,17.75
2023-04-17T02:41:19.262Z,16.83
2023-04-17T02:44:08.277Z,17.60
2023-04-17T02:46:57.122Z,18.27
2023-04-17T02:49:48.210Z,17.90
2023-04-17T02:52:36.890Z,17.40
2023-04-17T02:55:25.754Z,17.65
2023-04-17T02:58:14.589Z,16.83
2023-04-17T03:01:04.508Z,16.73
2023-04-17T03:03:58.012Z,18.20
2023-04-17T03:06:48.208Z,18.00
2023-04-17T03:09:37.133Z,17.15
2023-04-17T03:12:26.889Z,17.83
2023-04-17T03:15:15.682Z,17.35
2023-04-17T03:18:05.803Z,17.55
2023-04-17T03:20:55.281Z,18.00
2023-04-17T03:23:45.285Z,18.33
2023-04-17T03:26:34.527Z,17.35
2023-04-17T03:29:28.376Z,17.42
2023-04-17T03:32:17.505Z,17.85
2023-04-17T03:35:07.774Z,17.33
2023-04-17T03:37:56.466Z,17.25
2023-04-17T03:40:47.100Z,18.23
2023-04-17T03:43:36.082Z,18.58
2023-04-17T03:46:24.934Z,18.13
2023-04-17T03:49:14.910Z,16.67
2023-04-17T03:52:04.743Z,17.60
2023-04-17T03:54:54.477Z,17.65
2023-04-17T03:57:44.726Z,17.90
2023-04-17T04:00:33.881Z,18.05
2023-04-17T04:03:29.535Z,18.10
2023-04-17T04:06:20.447Z,18.65
2023-04-17T04:09:10.523Z,18.10
2023-04-17T04:11:59.862Z,18.27
2023-04-17T04:14:51.833Z,17.50
2023-04-17T04:17:41.250Z,17.67
2023-04-17T04:20:30.115Z,18.50
2023-04-17T04:23:31.153Z,17.83
2023-04-17T04:26:21.956Z,18.08
2023-04-17T04:29:14.836Z,17.95
2023-04-17T04:32:19.882Z,17.85
2023-04-17T04:35:11.778Z,18.63
2023-04-17T04:38:02.479Z,17.55
2023-04-17T04:40:53.826Z,18.40
2023-04-17T04:43:42.638Z,18.48
2023-04-17T04:46:32.197Z,17.38
2023-04-17T04:49:22.445Z,18.52
2023-04-17T04:52:11.111Z,17.80
2023-04-17T04:55:00.071Z,18.73
2023-04-17T04:57:48.822Z,17.98
2023-04-17T05:00:37.564Z,17.88
2023-04-17T05:03:27.129Z,18.02
2023-04-17T05:06:17.545Z,18.05
2023-04-17T05:09:11.004Z,18.70
2023-04-17T05:12:00.113Z,18.35
2023-04-17T05:14:49.239Z,16.98
2023-04-17T05:17:41.957Z,16.63
2023-04-17T05:20:32.159Z,18.10
2023-04-17T05:23:23.067Z,17.30
2023-04-17T05:26:13.169Z,16.55
2023-04-17T05:29:02.201Z,17.50
2023-04-17T05:31:53.350Z,18.17
2023-04-17T05:35:01.036Z,17.50
2023-04-17T05:37:52.022Z,16.65
2023-04-17T05:40:42.201Z,18.52
2023-04-17T05:43:32.223Z,17.35
2023-04-17T05:46:22.271Z,16.83
2023-04-17T05:49:11.237Z,17.48
2023-04-17T05:52:01.135Z,17.25
2023-04-17T05:54:50.388Z,17.50
2023-04-17T05:57:42.355Z,16.80
2023-04-17T06:00:31.963Z,17.05
2023-04-17T06:03:27.251Z,17.52
2023-04-17T06:06:26.604Z,17.58
2023-04-17T06:09:15.975Z,18.45
2023-04-17T06:12:04.960Z,19.23
2023-04-17T06:14:57.622Z,19.92
2023-04-17T06:17:46.483Z,19.40
2023-04-17T06:20:35.610Z,19.48
2023-04-17T06:23:24.704Z,20.67
2023-04-17T06:26:14.131Z,20.20
2023-04-17T06:29:04.060Z,19.25
2023-04-17T06:31:55.930Z,19.75
2023-04-17T06:34:58.597Z,20.05
2023-04-17T06:38:01.452Z,19.77
2023-04-17T06:40:52.128Z,19.92
2023-04-17T06:43:41.957Z,20.55
2023-04-17T06:46:37.021Z,20.35
2023-04-17T06:49:27.522Z,20.05
2023-04-17T06:52:17.872Z,19.25
2023-04-17T06:55:08.539Z,19.58
2023-04-17T06:57:57.207Z,19.30
2023-04-17T07:00:45.958Z,18.52
2023-04-17T07:03:35.160Z,18.60
2023-04-17T07:06:26.760Z,19.45
2023-04-17T07:09:15.545Z,19.27
2023-04-17T07:12:05.038Z,18.45
2023-04-17T07:14:53.937Z,18.67
2023-04-17T07:17:42.750Z,18.92
2023-04-17T07:20:32.166Z,19.95
2023-04-17T07:23:22.276Z,19.40
2023-04-17T07:26:13.000Z,18.48
2023-04-17T07:29:02.019Z,20.52
2023-04-17T07:31:50.787Z,20.40
2023-04-17T07:34:41.391Z,21.02
2023-04-17T07:37:30.214Z,20.58
2023-04-17T07:40:20.620Z,19.33
2023-04-17T07:43:10.494Z,19.95
2023-04-17T07:45:59.335Z,19.17
2023-04-17T07:48:48.268Z,18.25
2023-04-17T07:51:38.452Z,18.73
2023-04-17T07:54:27.562Z,18.67
2023-04-17T07:57:22.276Z,18.20
2023-04-17T08:00:15.354Z,17.67
2023-04-17T08:03:04.536Z,18.02
2023-04-17T08:05:54.314Z,17.70
2023-04-17T08:08:47.546Z,17.35
2023-04-17T08:11:49.577Z,17.50
2023-04-17T08:14:46.246Z,16.60
2023-04-17T08:17:35.193Z,16.77
2023-04-17T08:20:24.608Z,17.42
2023-04-17T08:23:13.536Z,17.08
2023-04-17T08:26:02.494Z,17.10
2023-04-17T08:28:53.797Z,17.95
2023-04-17T08:31:44.210Z,17.77
2023-04-17T08:34:33.403Z,17.98
2023-04-17T08:37:36.226Z,17.40
2023-04-17T08:40:47.378Z,16.90
2023-04-17T08:43:39.163Z,17.02
2023-04-17T08:46:28.573Z,17.20
2023-04-17T08:49:18.868Z,16.77
2023-04-17T08:52:08.285Z,16.38
2023-04-17T08:54:57.207Z,16.40
2023-04-17T08:57:56.507Z,15.95
2023-04-17T09:00:46.551Z,14.60
2023-04-17T09:03:42.951Z,14.10
2023-04-17T09:06:53.066Z,14.05
2023-04-17T09:09:51.483Z,14.05
2023-04-17T09:12:42.172Z,13.05
2023-04-17T09:15:31.136Z,13.43
2023-04-17T09:18:26.837Z,13.95
2023-04-17T09:21:18.782Z,13.80
2023-04-17T09:24:10.221Z,14.68
2023-04-17T09:27:22.792Z,14.02
2023-04-17T09:30:12.069Z,14.15
2023-04-17T09:33:12.192Z,13.90
2023-04-17T09:36:22.239Z,13.00
2023-04-17T09:39:21.052Z,12.15
2023-04-17T09:42:10.496Z,12.95
2023-04-17T09:44:59.232Z,13.07
2023-04-17T09:47:49.142Z,12.82
2023-04-17T09:50:38.964Z,13.20
2023-04-17T09:53:28.229Z,12.90
2023-04-17T09:56:22.011Z,12.10
2023-04-17T09:59:11.177Z,12.20
2023-04-17T10:02:00.408Z,12.00
2023-04-17T10:04:49.606Z,12.32
2023-04-17T10:07:40.207Z,12.13
2023-04-17T10:10:31.499Z,12.18
2023-04-17T10:13:27.258Z,12.10
2023-04-17T10:16:16.635Z,12.13
2023-04-17T10:19:29.150Z,11.95
2023-04-17T10:22:34.140Z,12.25
2023-04-17T10:25:24.891Z,12.43
2023-04-17T10:28:13.823Z,11.57
2023-04-17T10:31:04.175Z,11.65
2023-04-17T10:33:54.416Z,12.82
2023-04-17T10:36:52.656Z,13.52
2023-04-17T10:39:52.790Z,12.15
2023-04-17T10:42:41.703Z,12.85
2023-04-17T10:45:53.742Z,12.10
2023-04-17T10:48:52.420Z,12.25
2023-04-17T10:51:42.922Z,11.13
2023-04-17T10:54:34.451Z,12.20
2023-04-17T10:57:53.624Z,11.93
2023-04-17T11:00:53.087Z,11.13
2023-04-17T11:03:43.442Z,10.90
2023-04-17T11:06:37.872Z,11.30
2023-04-17T11:09:28.732Z,11.02
2023-04-17T11:12:17.574Z,11.00
2023-04-17T11:15:08.121Z,11.13
2023-04-17T11:17:57.965Z,10.70
2023-04-17T11:20:47.434Z,10.10
2023-04-17T11:23:37.974Z,10.75
2023-04-17T11:26:26.754Z,9.95
2023-04-17T11:29:16.876Z,9.57
2023-04-17T11:32:06.347Z,12.43
2023-04-17T11:34:56.656Z,8.27
2023-04-17T11:38:07.148Z,9.30
2023-04-17T11:40:59.741Z,8.60
2023-04-17T11:43:48.484Z,9.32
2023-04-17T11:46:37.710Z,9.40
2023-04-17T11:49:27.557Z,7.75
2023-04-17T11:52:18.076Z,8.50
2023-04-17T11:55:10.695Z,7.70
2023-04-17T11:58:02.233Z,8.02
2023-04-17T12:01:06.320Z,8.93
2023-04-17T12:03:56.554Z,8.00
2023-04-17T12:06:45.379Z,8.63
2023-04-17T12:09:35.645Z,8.50
2023-04-17T12:12:24.409Z,7.85
2023-04-17T12:15:14.806Z,7.88
2023-04-17T12:18:06.035Z,8.35
2023-04-17T12:20:54.850Z,9.23
2023-04-17T12:23:44.109Z,7.40
2023-04-17T12:26:32.995Z,7.97
2023-04-17T12:29:32.742Z,7.28
2023-04-17T12:32:32.447Z,7.25
2023-04-17T12:35:21.616Z,7.72
2023-04-17T12:38:10.448Z,8.35
2023-04-17T12:40:59.437Z,7.63
2023-04-17T12:43:48.169Z,7.72
2023-04-17T12:46:37.174Z,7.47
2023-04-17T12:49:27.429Z,8.10
2023-04-17T12:52:16.724Z,7.35
2023-04-17T12:55:07.605Z,7.90
2023-04-17T12:57:56.348Z,7.47
2023-04-17T13:00:45.440Z,6.68
2023-04-17T13:03:34.281Z,6.97
2023-04-17T13:06:24.395Z,8.45
2023-04-17T13:09:13.435Z,7.60
2023-04-17T13:12:02.551Z,7.28
2023-04-17T13:14:51.448Z,7.05
2023-04-17T13:17:40.174Z,6.80
2023-04-17T13:20:29.011Z,8.02
2023-04-17T13:23:19.302Z,6.80
2023-04-17T13:26:08.096Z,6.10
2023-04-17T13:28:56.931Z,5.80
2023-04-17T13:31:45.771Z,5.80
2023-04-17T13:34:34.424Z,5.55
2023-04-17T13:37:23.219Z,5.57
2023-04-17T13:40:15.308Z,5.45
2023-04-17T13:43:06.159Z,5.78
2023-04-17T13:45:56.895Z,5.40
2023-04-17T13:48:45.925Z,5.72
2023-04-17T13:51:34.714Z,5.70
2023-04-17T13:54:23.690Z,5.25
2023-04-17T13:57:14.855Z,5.82
2023-04-17T14:00:04.169Z,5.50
2023-04-17T14:02:53.425Z,5.40
2023-04-17T14:05:42.215Z,5.00
2023-04-17T14:08:31.108Z,4.97
2023-04-17T14:11:19.811Z,5.07
2023-04-17T14:14:10.133Z,5.93
2023-04-17T14:16:58.971Z,5.30
2023-04-17T14:19:47.842Z,5.68
2023-04-17T14:22:36.874Z,6.15
2023-04-17T14:25:25.686Z,5.60
2023-04-17T14:28:14.922Z,5.72
2023-04-17T14:31:08.738Z,5.80
2023-04-17T14:33:57.465Z,5.75
2023-04-17T14:36:46.442Z,5.90
2023-04-17T14:39:35.262Z,5.90
2023-04-17T14:42:24.161Z,5.85
2023-04-17T14:45:13.102Z,6.15
2023-04-17T14:48:03.947Z,5.68
2023-04-17T14:50:52.875Z,5.53
2023-04-17T14:53:42.307Z,6.50
2023-04-17T14:56:31.375Z,6.45
2023-04-17T14:59:20.295Z,5.80
2023-04-17T15:02:09.434Z,7.40
2023-04-17T15:04:59.588Z,6.45
2023-04-17T15:07:48.791Z,6.43
2023-04-17T15:10:50.219Z,6.35
2023-04-17T15:13:40.648Z,5.85
2023-04-17T15:16:29.760Z,5.85
2023-04-17T15:19:22.518Z,6.77
2023-04-17T15:22:12.840Z,5.63
2023-04-17T15:25:01.680Z,6.05
2023-04-17T15:27:52.439Z,6.28
2023-04-17T15:30:41.344Z,6.30
2023-04-17T15:33:31.050Z,6.13
2023-04-17T15:36:19.960Z,6.10
2023-04-17T15:39:10.103Z,6.35
2023-04-17T15:41:59.285Z,6.10
2023-04-17T15:44:48.032Z,6.05
2023-04-17T15:47:36.817Z,6.00
2023-04-17T15:50:25.684Z,6.00
2023-04-17T15:53:14.459Z,6.03
2023-04-17T15:56:07.007Z,5.40
2023-04-17T15:58:55.905Z,5.22
2023-04-17T16:01:48.415Z,5.70
2023-04-17T16:04:39.216Z,5.70
2023-04-17T16:07:28.193Z,5.90
2023-04-17T16:10:16.984Z,6.10
2023-04-17T16:13:07.159Z,5.95
2023-04-17T16:15:55.946Z,6.20
2023-04-17T16:18:47.768Z,6.05
2023-04-17T16:21:39.622Z,6.75
2023-04-17T16:24:31.222Z,6.32
2023-04-17T16:27:20.100Z,6.43
2023-04-17T16:30:11.753Z,6.47
2023-04-17T16:33:00.913Z,6.65
2023-04-17T16:35:49.805Z,6.68
2023-04-17T16:38:38.985Z,6.93
2023-04-17T16:41:28.680Z,6.43
2023-04-17T16:44:18.621Z,6.68
2023-04-17T16:47:13.935Z,6.95
2023-04-17T16:50:03.774Z,6.28
2023-04-17T16:52:52.429Z,6.22
2023-04-17T16:55:41.251Z,5.65
2023-04-17T16:58:29.934Z,5.78
2023-04-17T17:01:18.734Z,5.75
2023-04-17T17:04:09.160Z,5.63
2023-04-17T17:06:57.992Z,5.75
2023-04-17T17:09:46.815Z,5.32
2023-04-17T17:12:36.113Z,5.15
2023-04-17T17:15:25.329Z,5.07
2023-04-17T17:18:14.110Z,5.18
2023-04-17T17:21:05.023Z,5.15
2023-04-17T17:23:53.852Z,5.22
2023-04-17T17:26:42.554Z,5.20
2023-04-17T17:29:31.397Z,5.25
2023-04-17T17:32:20.281Z,4.63
2023-04-17T17:35:10.027Z,5.45
2023-04-17T17:38:00.217Z,5.70
2023-04-17T17:40:49.031Z,5.70
2023-04-17T17:43:38.207Z,5.35
2023-04-17T17:46:27.881Z,5.78
2023-04-17T17:49:17.545Z,5.30
2023-04-17T17:52:06.643Z,5.68
2023-04-17T17:54:57.044Z,5.22
2023-04-17T17:57:49.206Z,5.70
2023-04-17T18:00:38.654Z,5.68
2023-04-17T18:03:27.796Z,6.03
2023-04-17T18:06:16.757Z,6.13
2023-04-17T18:09:05.682Z,5.85
2023-04-17T18:11:55.874Z,6.10
2023-04-17T18:14:44.802Z,6.00
2023-04-17T18:17:33.884Z,6.20
2023-04-17T18:20:23.904Z,6.28
2023-04-17T18:23:12.773Z,5.85
2023-04-17T18:26:02.770Z,5.75
2023-04-17T18:28:53.094Z,5.70
2023-04-17T18:31:41.974Z,6.40
2023-04-17T18:34:31.150Z,5.78
2023-04-17T18:37:19.919Z,6.45
2023-04-17T18:40:10.677Z,6.53
2023-04-17T18:42:59.504Z,5.90
2023-04-17T18:45:49.745Z,5.82
2023-04-17T18:48:38.584Z,6.50
2023-04-17T18:51:27.367Z,6.35
2023-04-17T18:54:16.743Z,6.53
2023-04-17T18:57:05.805Z,6.45
2023-04-17T18:59:54.714Z,6.32
2023-04-17T19:02:45.207Z,6.53
2023-04-17T19:05:36.690Z,6.10
2023-04-17T19:08:25.532Z,6.78
2023-04-17T19:11:14.420Z,6.63
2023-04-17T19:14:03.501Z,5.82
2023-04-17T19:16:53.486Z,6.30
2023-04-17T19:19:43.766Z,6.43
2023-04-17T19:22:32.528Z,6.15
2023-04-17T19:25:21.614Z,6.30
2023-04-17T19:28:11.579Z,6.65
2023-04-17T19:31:01.140Z,6.78
2023-04-17T19:33:49.873Z,6.70
2023-04-17T19:36:40.081Z,7.47
2023-04-17T19:39:29.634Z,6.72
2023-04-17T19:42:18.484Z,7.25
2023-04-17T19:45:08.348Z,7.72
2023-04-17T19:47:57.418Z,8.00
2023-04-17T19:50:46.370Z,7.82
2023-04-17T19:53:38.440Z,8.32
2023-04-17T19:56:27.182Z,8.63
2023-04-17T19:59:16.092Z,8.95
2023-04-17T20:02:05.040Z,8.73
2023-04-17T20:04:54.066Z,8.35
2023-04-17T20:07:42.935Z,9.02
2023-04-17T20:10:33.720Z,8.48
2023-04-17T20:13:22.679Z,8.82
2023-04-17T20:16:11.453Z,8.38
2023-04-17T20:19:00.190Z,9.25
2023-04-17T20:21:49.213Z,9.07
2023-04-17T20:24:38.261Z,9.65
2023-04-17T20:27:28.656Z,9.57
2023-04-17T20:30:17.788Z,9.80
2023-04-17T20:33:06.913Z,9.32
2023-04-17T20:35:55.915Z,9.88
2023-04-17T20:38:44.800Z,9.60
2023-04-17T20:41:34.016Z,9.57
2023-04-17T20:44:25.472Z,10.48
2023-04-17T20:47:14.351Z,10.32
2023-04-17T20:50:03.476Z,9.90
2023-04-17T20:52:52.360Z,10.32
2023-04-17T20:55:41.164Z,11.35
2023-04-17T20:58:29.863Z,11.07
2023-04-17T21:01:20.618Z,11.57
2023-04-17T21:04:11.486Z,11.07
2023-04-17T21:07:00.752Z,11.73
2023-04-17T21:09:50.014Z,11.93
2023-04-17T21:12:38.841Z,10.90
2023-04-17T21:15:27.634Z,11.40
2023-04-17T21:18:17.781Z,12.18
2023-04-17T21:21:06.845Z,11.90
2023-04-17T21:23:55.845Z,11.82
2023-04-17T21:26:44.690Z,11.88
2023-04-17T21:29:33.584Z,12.30
2023-04-17T21:32:22.404Z,10.82
2023-04-17T21:35:12.652Z,12.23
2023-04-17T21:38:01.507Z,12.07
2023-04-17T21:40:51.796Z,10.90
2023-04-17T21:43:40.614Z,12.00
2023-04-17T21:46:29.355Z,12.40
2023-04-17T21:49:18.295Z,12.55
2023-04-17T21:52:08.787Z,12.55
2023-04-17T21:55:02.958Z,12.48
2023-04-17T21:57:51.860Z,13.18
2023-04-17T22:00:41.266Z,13.00
2023-04-17T22:03:30.209Z,13.00
2023-04-17T22:06:19.025Z,13.70
2023-04-17T22:09:09.982Z,12.82
2023-04-17T22:11:58.834Z,12.75
2023-04-17T22:14:48.410Z,13.32
2023-04-17T22:17:37.184Z,13.77
2023-04-17T22:20:26.130Z,13.80
2023-04-17T22:23:14.839Z,14.25
2023-04-17T22:26:05.433Z,15.35
2023-04-17T22:28:54.401Z,14.48
2023-04-17T22:31:43.160Z,14.18
2023-04-17T22:34:32.041Z,13.85
2023-04-17T22:37:20.837Z,15.38
2023-04-17T22:40:10.735Z,15.48
2023-04-17T22:43:01.109Z,13.93
2023-04-17T22:46:11.735Z,14.02
2023-04-17T22:49:01.012Z,14.68
2023-04-17T22:51:49.812Z,15.00
2023-04-17T22:54:38.721Z,14.65
2023-04-17T22:57:27.510Z,15.02
2023-04-17T23:00:20.300Z,15.95
2023-04-17T23:03:09.841Z,15.93
2023-04-17T23:05:58.789Z,15.65
2023-04-17T23:08:47.570Z,15.93
2023-04-17T23:11:36.281Z,16.10
2023-04-17T23:14:26.459Z,17.02
2023-04-17T23:17:16.629Z,16.55
2023-04-17T23:20:08.604Z,16.10
2023-04-17T23:22:57.451Z,17.05
2023-04-17T23:25:46.418Z,16.83
2023-04-17T23:28:35.314Z,16.77
2023-04-17T23:31:24.104Z,17.83
2023-04-17T23:34:14.681Z,17.45
2023-04-17T23:37:03.793Z,16.67
2023-04-17T23:39:52.623Z,16.85
2023-04-17T23:42:42.214Z,16.95
2023-04-17T23:45:30.928Z,16.75
2023-04-17T23:48:19.784Z,17.17
2023-04-17T23:51:10.117Z,17.40
2023-04-17T23:54:00.417Z,15.93
2023-04-17T23:56:49.357Z,16.55
2023-04-17T23:59:38.118Z,16.30
